createdAt,value
2019-05-20T00:00:54.383Z,96290.95
2019-05-20T00:03:24.126Z,96291.46
2019-05-20T00:05:54.340Z,96285.34
2019-05-20T00:08:24.328Z,96289.54
2019-05-20T00:10:54.342Z,96292.41
2019-05-20T00:13:24.316Z,96297.66
2019-05-20T00:15:54.365Z,96291.47
2019-05-20T00:18:24.328Z,96288.33
2019-05-20T00:20:54.370Z,96288.97
2019-05-20T00:23:24.346Z,96290.45
2019-05-20T00:25:54.443Z,96292.59
2019-05-20T00:28:24.467Z,96295.83
2019-05-20T00:30:54.469Z,96285.62
2019-05-20T00:33:25.356Z,96274.58
2019-05-20T00:35:54.908Z,96274.47
2019-05-20T00:38:24.406Z,96267.68
2019-05-20T00:40:54.428Z,96268.09
2019-05-20T00:43:24.493Z,96264.17
2019-05-20T00:45:54.498Z,96269.38
2019-05-20T00:48:24.540Z,96259.33
2019-05-20T00:50:55.200Z,96263.39
2019-05-20T00:53:24.600Z,96266.93
2019-05-20T00:55:54.558Z,96265.43
2019-05-20T00:58:24.595Z,96259.33
2019-05-20T01:00:54.584Z,96257.61
2019-05-20T01:03:24.578Z,96252.52
2019-05-20T01:05:54.527Z,96252.63
2019-05-20T01:08:24.551Z,96250.27
2019-05-20T01:10:54.563Z,96253.31
2019-05-20T01:13:24.609Z,96256.04
2019-05-20T01:15:54.578Z,96257.17
2019-05-20T01:18:24.629Z,96256.53
2019-05-20T01:20:54.598Z,96259.73
2019-05-20T01:23:24.620Z,96250.97
2019-05-20T01:25:54.655Z,96255.35
2019-05-20T01:28:25.030Z,96256.06
2019-05-20T01:30:54.690Z,96257.58
2019-05-20T01:33:24.740Z,96252.06
2019-05-20T01:35:54.735Z,96254.02
2019-05-20T01:38:24.754Z,96241.27
2019-05-20T01:40:54.761Z,96242.43
2019-05-20T01:43:24.809Z,96243.37
2019-05-20T01:45:54.729Z,96238.93
2019-05-20T01:48:24.863Z,96245.16
2019-05-20T01:50:54.890Z,96235.07
2019-05-20T01:53:24.879Z,96234.08
2019-05-20T01:55:54.876Z,96225.72
2019-05-20T01:58:24.913Z,96224.53
2019-05-20T02:00:54.865Z,96232.82
2019-05-20T02:03:31.788Z,96229.71
2019-05-20T02:05:56.298Z,96227.37
2019-05-20T02:08:25.684Z,96222.58
2019-05-20T02:10:56.894Z,96216.80
2019-05-20T02:13:28.037Z,96214.13
2019-05-20T02:16:08.040Z,96206.16
2019-05-20T02:18:37.431Z,96212.52
2019-05-20T02:21:06.851Z,96206.59
2019-05-20T02:23:36.239Z,96217.41
2019-05-20T02:26:06.265Z,96210.90
2019-05-20T02:28:36.293Z,96207.73
2019-05-20T02:31:06.590Z,96211.86
2019-05-20T02:33:51.148Z,96204.34
2019-05-20T02:36:09.596Z,96197.80
2019-05-20T02:38:39.030Z,96198.20
2019-05-20T02:41:08.484Z,96190.92
2019-05-20T02:43:38.856Z,96200.66
2019-05-20T02:46:08.320Z,96192.09
2019-05-20T02:48:38.040Z,96197.56
2019-05-20T02:51:08.324Z,96189.39
2019-05-20T02:53:38.437Z,96181.91
2019-05-20T02:56:08.610Z,96184.81
2019-05-20T02:58:38.712Z,96189.09
2019-05-20T03:01:09.041Z,96189.63
2019-05-20T03:03:39.155Z,96192.19
2019-05-20T03:06:09.405Z,96196.56
2019-05-20T03:08:39.664Z,96185.79
2019-05-20T03:11:09.734Z,96184.88
2019-05-20T03:13:39.935Z,96184.30
2019-05-20T03:16:10.294Z,96192.55
2019-05-20T03:18:40.319Z,96183.19
2019-05-20T03:21:10.661Z,96190.95
2019-05-20T03:23:40.827Z,96184.55
2019-05-20T03:26:11.346Z,96194.98
2019-05-20T03:28:41.182Z,96189.48
2019-05-20T03:31:10.652Z,96184.93
2019-05-20T03:33:40.092Z,96184.15
2019-05-20T03:36:09.528Z,96181.63
2019-05-20T03:38:38.896Z,96190.36
2019-05-20T03:41:08.284Z,96188.55
2019-05-20T03:43:37.670Z,96187.10
2019-05-20T03:46:07.056Z,96191.13
2019-05-20T03:48:36.443Z,96183.14
2019-05-20T03:51:05.832Z,96181.59
2019-05-20T03:53:35.213Z,96184.90
2019-05-20T03:56:04.688Z,96181.72
2019-05-20T03:58:34.068Z,96177.16
2019-05-20T04:01:03.467Z,96169.66
2019-05-20T04:03:32.841Z,96172.14
2019-05-20T04:06:02.234Z,96172.14
2019-05-20T04:08:31.623Z,96171.66
2019-05-20T04:11:01.024Z,96176.73
2019-05-20T04:13:34.488Z,96179.24
2019-05-20T04:16:01.504Z,96175.48
2019-05-20T04:18:30.905Z,96180.02
2019-05-20T04:21:00.304Z,96181.16
2019-05-20T04:23:29.716Z,96181.09
2019-05-20T04:25:59.225Z,96178.38
2019-05-20T04:28:28.604Z,96172.48
2019-05-20T04:30:58.130Z,96176.39
2019-05-20T04:33:27.704Z,96176.39
2019-05-20T04:35:57.105Z,96179.42
2019-05-20T04:38:26.499Z,96180.80
2019-05-20T04:40:55.982Z,96177.06
2019-05-20T04:43:25.604Z,96182.36
2019-05-20T04:45:55.690Z,96184.14
2019-05-20T04:48:25.635Z,96182.50
2019-05-20T04:50:55.656Z,96191.19
2019-05-20T04:53:25.662Z,96194.55
2019-05-20T04:55:55.772Z,96185.96
2019-05-20T04:58:25.717Z,96186.85
2019-05-20T05:00:57.172Z,96187.38
2019-05-20T05:03:26.906Z,96194.25
2019-05-20T05:05:56.662Z,96194.89
2019-05-20T05:08:26.297Z,96198.95
2019-05-20T05:10:56.057Z,96203.38
2019-05-20T05:13:26.195Z,96202.16
2019-05-20T05:15:56.133Z,96210.14
2019-05-20T05:18:26.126Z,96219.09
2019-05-20T05:20:55.848Z,96213.34
2019-05-20T05:23:26.041Z,96215.13
2019-05-20T05:25:55.871Z,96210.81
2019-05-20T05:28:25.914Z,96218.91
2019-05-20T05:30:56.081Z,96208.70
2019-05-20T05:33:25.543Z,96219.23
2019-05-20T05:35:55.452Z,96214.66
2019-05-20T05:38:25.661Z,96225.58
2019-05-20T05:40:55.907Z,96223.66
2019-05-20T05:43:26.059Z,96224.30
2019-05-20T05:45:55.922Z,96223.05
2019-05-20T05:48:26.058Z,96231.17
2019-05-20T05:50:55.966Z,96235.88
2019-05-20T05:53:26.027Z,96237.93
2019-05-20T05:55:55.995Z,96235.27
2019-05-20T05:58:26.123Z,96238.15
2019-05-20T06:00:56.066Z,96241.91
2019-05-20T06:03:26.066Z,96237.97
2019-05-20T06:06:10.755Z,96241.89
2019-05-20T06:08:27.115Z,96242.06
2019-05-20T06:10:56.508Z,96235.61
2019-05-20T06:13:26.132Z,96234.52
2019-05-20T06:15:56.057Z,96238.27
2019-05-20T06:18:25.459Z,96235.34
2019-05-20T06:20:54.925Z,96242.45
2019-05-20T06:23:24.349Z,96246.30
2019-05-20T06:25:53.722Z,96250.34
2019-05-20T06:28:23.109Z,96240.09
2019-05-20T06:30:52.627Z,96240.09
2019-05-20T06:33:22.272Z,96243.25
2019-05-20T06:35:52.039Z,96247.66
2019-05-20T06:38:36.321Z,96246.92
2019-05-20T06:41:07.412Z,96255.14
2019-05-20T06:43:36.883Z,96255.14
2019-05-20T06:46:06.406Z,96263.78
2019-05-20T06:48:35.827Z,96258.45
2019-05-20T06:51:05.271Z,96255.16
2019-05-20T06:53:34.723Z,96267.21
2019-05-20T06:56:04.208Z,96269.00
2019-05-20T06:58:33.603Z,96271.48
2019-05-20T07:01:03.064Z,96263.12
2019-05-20T07:03:32.912Z,96264.00
2019-05-20T07:06:02.292Z,96263.78
2019-05-20T07:08:31.728Z,96260.66
2019-05-20T07:11:04.847Z,96270.53
2019-05-20T07:13:35.205Z,96264.05
2019-05-20T07:16:04.624Z,96268.34
2019-05-20T07:18:35.112Z,96271.76
2019-05-20T07:21:04.567Z,96274.47
2019-05-20T07:23:34.026Z,96270.42
2019-05-20T07:26:03.418Z,96273.48
2019-05-20T07:28:33.000Z,96272.55
2019-05-20T07:31:02.394Z,96282.68
2019-05-20T07:33:32.093Z,96282.68
2019-05-20T07:36:01.558Z,96287.45
2019-05-20T07:38:31.105Z,96283.88
2019-05-20T07:41:00.650Z,96283.38
2019-05-20T07:43:30.180Z,96290.02
2019-05-20T07:46:00.551Z,96290.37
2019-05-20T07:48:30.596Z,96290.65
2019-05-20T07:51:01.264Z,96290.60
2019-05-20T07:53:32.091Z,96294.17
2019-05-20T07:56:07.512Z,96293.73
2019-05-20T07:58:39.450Z,96300.31
2019-05-20T08:01:09.035Z,96299.17
2019-05-20T08:03:38.859Z,96296.14
2019-05-20T08:06:08.343Z,96301.88
2019-05-20T08:08:37.789Z,96305.61
2019-05-20T08:11:07.374Z,96299.69
2019-05-20T08:13:36.777Z,96295.86
2019-05-20T08:16:06.229Z,96289.13
2019-05-20T08:18:35.624Z,96294.68
2019-05-20T08:21:05.145Z,96295.55
2019-05-20T08:23:34.538Z,96292.44
2019-05-20T08:26:03.984Z,96296.11
2019-05-20T08:28:33.501Z,96298.98
2019-05-20T08:31:02.901Z,96296.09
2019-05-20T08:33:33.247Z,96296.69
2019-05-20T08:36:03.525Z,96299.45
2019-05-20T08:38:33.658Z,96296.84
2019-05-20T08:41:03.527Z,96294.19
2019-05-20T08:43:33.594Z,96290.72
2019-05-20T08:46:03.510Z,96290.11
2019-05-20T08:48:33.619Z,96289.89
2019-05-20T08:51:03.732Z,96285.52
2019-05-20T08:53:33.668Z,96281.77
2019-05-20T08:56:03.927Z,96280.02
2019-05-20T08:58:33.574Z,96288.02
2019-05-20T09:01:04.002Z,96285.56
2019-05-20T09:03:33.654Z,96281.55
2019-05-20T09:06:03.632Z,96280.80
2019-05-20T09:08:33.620Z,96283.73
2019-05-20T09:11:03.034Z,96280.68
2019-05-20T09:13:32.474Z,96279.13
2019-05-20T09:16:01.936Z,96280.73
2019-05-20T09:18:32.679Z,96278.72
2019-05-20T09:21:03.823Z,96284.39
2019-05-20T09:23:33.752Z,96279.91
2019-05-20T09:26:04.004Z,96285.02
2019-05-20T09:28:33.850Z,96285.54
2019-05-20T09:31:03.943Z,96291.38
2019-05-20T09:33:34.842Z,96285.09
2019-05-20T09:36:04.540Z,96285.30
2019-05-20T09:38:37.127Z,96277.22
2019-05-20T09:41:06.229Z,96276.09
2019-05-20T09:43:35.741Z,96272.55
2019-05-20T09:46:07.967Z,96279.86
2019-05-20T09:48:36.524Z,96280.77
2019-05-20T09:51:06.045Z,96279.17
2019-05-20T09:53:35.502Z,96273.56
2019-05-20T09:56:04.946Z,96275.22
2019-05-20T09:58:34.336Z,96276.58
2019-05-20T10:01:04.184Z,96276.83
2019-05-20T10:03:34.143Z,96270.53
2019-05-20T10:06:04.667Z,96270.52
2019-05-20T10:08:40.900Z,96270.89
2019-05-20T10:11:06.866Z,96266.31
2019-05-20T10:13:36.223Z,96269.47
2019-05-20T10:16:05.579Z,96268.95
2019-05-20T10:18:38.159Z,96274.84
2019-05-20T10:21:06.422Z,96273.06
2019-05-20T10:23:35.765Z,96270.27
2019-05-20T10:26:05.414Z,96265.09
2019-05-20T10:28:34.793Z,96269.00
2019-05-20T10:31:04.709Z,96260.13
2019-05-20T10:33:37.146Z,96259.87
2019-05-20T10:36:05.867Z,96261.41
2019-05-20T10:38:35.267Z,96264.34
2019-05-20T10:41:05.649Z,96257.22
2019-05-20T10:43:35.043Z,96256.61
2019-05-20T10:46:04.946Z,96260.25
2019-05-20T10:48:34.884Z,96262.44
2019-05-20T10:51:04.968Z,96264.40
2019-05-20T10:53:34.854Z,96260.06
2019-05-20T10:56:04.959Z,96262.28
2019-05-20T10:58:34.952Z,96265.28
2019-05-20T11:01:05.054Z,96261.06
2019-05-20T11:03:34.999Z,96265.80
2019-05-20T11:06:04.947Z,96261.60
2019-05-20T11:08:35.088Z,96259.17
2019-05-20T11:11:05.603Z,96268.73
2019-05-20T11:13:36.144Z,96261.06
2019-05-20T11:16:05.529Z,96260.13
2019-05-20T11:18:34.938Z,96250.24
2019-05-20T11:21:04.406Z,96251.73
2019-05-20T11:23:34.057Z,96252.13
2019-05-20T11:26:03.443Z,96252.88
2019-05-20T11:28:32.825Z,96247.73
2019-05-20T11:31:02.245Z,96248.48
2019-05-20T11:33:31.617Z,96245.00
2019-05-20T11:36:01.024Z,96259.61
2019-05-20T11:38:30.481Z,96254.94
2019-05-20T11:40:59.853Z,96252.00
2019-05-20T11:43:30.648Z,96254.52
2019-05-20T11:46:00.045Z,96252.89
2019-05-20T11:48:29.491Z,96248.30
2019-05-20T11:50:58.887Z,96244.45
2019-05-20T11:53:28.296Z,96236.25
2019-05-20T11:55:57.690Z,96227.81
2019-05-20T11:58:27.101Z,96226.73
2019-05-20T12:00:56.493Z,96225.62
2019-05-20T12:03:25.970Z,96229.50
2019-05-20T12:05:55.386Z,96224.99
2019-05-20T12:08:24.761Z,96230.97
2019-05-20T12:10:55.187Z,96233.30
2019-05-20T12:13:24.631Z,96239.08
2019-05-20T12:15:54.021Z,96221.50
2019-05-20T12:18:23.406Z,96223.78
2019-05-20T12:20:52.805Z,96221.92
2019-05-20T12:23:22.207Z,96231.22
2019-05-20T12:25:51.565Z,96240.19
2019-05-20T12:28:21.013Z,96231.50
2019-05-20T12:30:50.400Z,96229.52
2019-05-20T12:33:20.097Z,96221.25
2019-05-20T12:35:49.446Z,96220.84
2019-05-20T12:38:18.840Z,96221.00
2019-05-20T12:40:48.220Z,96216.20
2019-05-20T12:43:18.001Z,96216.44
2019-05-20T12:45:48.251Z,96226.13
2019-05-20T12:48:18.357Z,96211.94
2019-05-20T12:50:48.612Z,96217.03
2019-05-20T12:53:18.695Z,96212.87
2019-05-20T12:55:48.955Z,96230.34
2019-05-20T12:58:19.014Z,96222.59
2019-05-20T13:00:49.291Z,96230.81
2019-05-20T13:03:18.956Z,96236.73
2019-05-20T13:05:48.501Z,96244.30
2019-05-20T13:08:17.886Z,96239.83
2019-05-20T13:10:47.252Z,96244.92
2019-05-20T13:13:16.642Z,96241.60
2019-05-20T13:15:46.018Z,96248.30
2019-05-20T13:18:15.398Z,96237.73
2019-05-20T13:20:44.781Z,96239.85
2019-05-20T13:23:15.535Z,96247.45
2019-05-20T13:25:45.409Z,96246.20
2019-05-20T13:28:14.823Z,96251.92
2019-05-20T13:30:44.201Z,96252.08
2019-05-20T13:33:13.578Z,96237.96
2019-05-20T13:35:42.981Z,96232.28
2019-05-20T13:38:12.425Z,96231.15
2019-05-20T13:40:46.551Z,96235.02
2019-05-20T13:43:12.880Z,96230.41
2019-05-20T13:45:42.282Z,96234.70
2019-05-20T13:48:11.657Z,96227.08
2019-05-20T13:50:41.036Z,96223.05
2019-05-20T13:53:10.685Z,96221.41
2019-05-20T13:55:40.068Z,96233.92
2019-05-20T13:58:09.933Z,96229.31
2019-05-20T14:00:40.010Z,96225.20
2019-05-20T14:03:09.983Z,96222.26
2019-05-20T14:05:39.358Z,96235.69
2019-05-20T14:08:08.907Z,96235.99
2019-05-20T14:10:38.325Z,96238.41
2019-05-20T14:13:07.711Z,96237.19
2019-05-20T14:15:37.102Z,96246.13
2019-05-20T14:18:06.568Z,96262.97
2019-05-20T14:20:35.949Z,96263.95
2019-05-20T14:23:05.329Z,96265.42
2019-05-20T14:25:35.592Z,96267.66
2019-05-20T14:28:05.236Z,96265.55
2019-05-20T14:30:34.614Z,96259.46
2019-05-20T14:33:04.233Z,96268.30
2019-05-20T14:35:33.608Z,96274.08
2019-05-20T14:38:03.075Z,96274.95
2019-05-20T14:40:32.463Z,96274.19
2019-05-20T14:43:01.922Z,96270.68
2019-05-20T14:45:31.382Z,96279.84
2019-05-20T14:48:00.777Z,96285.95
2019-05-20T14:50:30.204Z,96284.28
2019-05-20T14:53:00.219Z,96290.31
2019-05-20T14:55:30.175Z,96287.00
2019-05-20T14:58:00.396Z,96297.01
2019-05-20T15:00:30.693Z,96309.26
2019-05-20T15:03:00.868Z,96308.39
2019-05-20T15:05:31.445Z,96302.16
2019-05-20T15:08:01.307Z,96305.92
2019-05-20T15:10:31.417Z,96301.77
2019-05-20T15:13:01.661Z,96304.80
2019-05-20T15:15:32.254Z,96304.44
2019-05-20T15:18:02.085Z,96306.67
2019-05-20T15:20:32.218Z,96309.61
2019-05-20T15:23:02.503Z,96305.61
2019-05-20T15:25:32.859Z,96309.44
2019-05-20T15:28:02.717Z,96311.28
2019-05-20T15:30:32.854Z,96303.64
2019-05-20T15:33:03.394Z,96308.65
2019-05-20T15:35:33.023Z,96305.45
2019-05-20T15:38:03.245Z,96300.46
2019-05-20T15:40:33.323Z,96289.59
2019-05-20T15:43:03.546Z,96297.49
2019-05-20T15:45:33.639Z,96300.40
2019-05-20T15:48:03.985Z,96302.72
2019-05-20T15:50:34.085Z,96297.10
2019-05-20T15:53:04.432Z,96296.59
2019-05-20T15:55:34.747Z,96298.16
2019-05-20T15:58:04.756Z,96299.75
2019-05-20T16:00:34.979Z,96305.63
2019-05-20T16:03:05.139Z,96297.76
2019-05-20T16:05:35.235Z,96298.97
2019-05-20T16:08:05.430Z,96309.30
2019-05-20T16:10:35.559Z,96300.62
2019-05-20T16:13:05.825Z,96302.73
2019-05-20T16:15:36.033Z,96309.41
2019-05-20T16:18:06.172Z,96310.00
2019-05-20T16:20:36.320Z,96305.09
2019-05-20T16:23:06.640Z,96307.67
2019-05-20T16:25:36.885Z,96310.18
2019-05-20T16:28:07.090Z,96310.44
2019-05-20T16:30:37.131Z,96310.00
2019-05-20T16:33:07.482Z,96310.77
2019-05-20T16:35:37.854Z,96302.02
2019-05-20T16:38:07.749Z,96305.94
2019-05-20T16:40:37.904Z,96305.00
2019-05-20T16:43:08.347Z,96306.20
2019-05-20T16:45:38.312Z,96304.64
2019-05-20T16:48:08.580Z,96314.05
2019-05-20T16:50:38.628Z,96313.16
2019-05-20T16:53:09.016Z,96303.94
2019-05-20T16:55:39.062Z,96310.56
2019-05-20T16:58:09.337Z,96312.83
2019-05-20T17:00:39.452Z,96312.41
2019-05-20T17:03:09.919Z,96309.39
2019-05-20T17:05:39.877Z,96308.97
2019-05-20T17:08:10.140Z,96305.98
2019-05-20T17:10:40.282Z,96302.95
2019-05-20T17:13:10.731Z,96302.45
2019-05-20T17:15:40.704Z,96306.99
2019-05-20T17:18:11.001Z,96314.05
2019-05-20T17:20:45.776Z,96311.59
2019-05-20T17:23:12.537Z,96300.14
2019-05-20T17:25:42.566Z,96296.07
2019-05-20T17:28:12.627Z,96300.39
2019-05-20T17:30:45.611Z,96290.73
2019-05-20T17:33:14.135Z,96298.70
2019-05-20T17:35:44.592Z,96291.11
2019-05-20T17:38:13.982Z,96300.52
2019-05-20T17:40:43.370Z,96302.34
2019-05-20T17:43:12.965Z,96301.75
2019-05-20T17:45:43.074Z,96298.48
2019-05-20T17:48:13.446Z,96304.31
2019-05-20T17:50:43.544Z,96298.41
2019-05-20T17:53:13.639Z,96300.64
2019-05-20T17:55:43.868Z,96303.49
2019-05-20T17:58:14.021Z,96311.17
2019-05-20T18:00:44.294Z,96308.81
2019-05-20T18:03:14.468Z,96313.63
2019-05-20T18:05:44.533Z,96311.84
2019-05-20T18:08:15.000Z,96316.44
2019-05-20T18:10:44.942Z,96312.72
2019-05-20T18:13:15.538Z,96312.52
2019-05-20T18:15:45.386Z,96310.57
2019-05-20T18:18:15.762Z,96309.67
2019-05-20T18:20:46.256Z,96311.76
2019-05-20T18:23:16.127Z,96302.23
2019-05-20T18:25:46.596Z,96317.30
2019-05-20T18:28:16.515Z,96321.68
2019-05-20T18:30:46.565Z,96320.88
2019-05-20T18:33:16.003Z,96322.69
2019-05-20T18:35:45.536Z,96327.14
2019-05-20T18:38:14.977Z,96326.78
2019-05-20T18:40:44.360Z,96335.77
2019-05-20T18:43:13.752Z,96331.99
2019-05-20T18:45:43.135Z,96335.57
2019-05-20T18:48:12.581Z,96341.52
2019-05-20T18:50:42.159Z,96347.97
2019-05-20T18:53:12.196Z,96346.22
2019-05-20T18:55:42.301Z,96350.45
2019-05-20T18:58:12.313Z,96351.87
2019-05-20T19:00:42.742Z,96357.84
2019-05-20T19:03:12.158Z,96354.88
2019-05-20T19:05:42.356Z,96356.95
2019-05-20T19:08:12.689Z,96355.81
2019-05-20T19:10:42.492Z,96363.88
2019-05-20T19:13:12.694Z,96364.02
2019-05-20T19:15:42.788Z,96367.98
2019-05-20T19:18:13.072Z,96372.81
2019-05-20T19:20:42.843Z,96369.27
2019-05-20T19:23:12.835Z,96373.58
2019-05-20T19:25:44.028Z,96374.19
2019-05-20T19:28:13.533Z,96378.79
2019-05-20T19:30:43.084Z,96379.48
2019-05-20T19:33:14.067Z,96382.02
2019-05-20T19:35:43.518Z,96377.28
2019-05-20T19:38:13.971Z,96388.67
2019-05-20T19:40:43.609Z,96382.92
2019-05-20T19:43:13.230Z,96391.19
2019-05-20T19:45:43.238Z,96391.02
2019-05-20T19:48:13.243Z,96389.36
2019-05-20T19:50:43.285Z,96396.37
2019-05-20T19:53:13.503Z,96390.44
2019-05-20T19:55:43.294Z,96392.46
2019-05-20T19:58:13.301Z,96395.27
2019-05-20T20:00:43.377Z,96395.46
2019-05-20T20:03:13.395Z,96394.50
2019-05-20T20:05:43.467Z,96397.33
2019-05-20T20:08:13.549Z,96400.44
2019-05-20T20:10:43.575Z,96410.98
2019-05-20T20:13:13.568Z,96412.56
2019-05-20T20:15:43.772Z,96410.70
2019-05-20T20:18:13.712Z,96409.28
2019-05-20T20:20:43.103Z,96416.17
2019-05-20T20:23:12.616Z,96413.73
2019-05-20T20:25:42.007Z,96410.84
2019-05-20T20:28:11.395Z,96420.33
2019-05-20T20:30:40.780Z,96421.02
2019-05-20T20:33:10.354Z,96425.80
2019-05-20T20:35:39.725Z,96424.84
2019-05-20T20:38:09.111Z,96431.96
2019-05-20T20:40:38.877Z,96426.02
2019-05-20T20:43:08.436Z,96431.07
2019-05-20T20:45:37.817Z,96426.13
2019-05-20T20:48:07.195Z,96424.02
2019-05-20T20:50:36.650Z,96425.56
2019-05-20T20:53:06.019Z,96433.34
2019-05-20T20:55:35.578Z,96434.83
2019-05-20T20:58:04.956Z,96436.45
2019-05-20T21:00:34.337Z,96432.41
2019-05-20T21:03:03.948Z,96437.73
2019-05-20T21:05:33.628Z,96435.47
2019-05-20T21:08:07.152Z,96443.16
2019-05-20T21:10:36.542Z,96446.41
2019-05-20T21:13:05.911Z,96443.73
2019-05-20T21:15:35.434Z,96443.70
2019-05-20T21:18:05.199Z,96448.40
2019-05-20T21:20:34.678Z,96448.94
2019-05-20T21:23:04.771Z,96454.28
2019-05-20T21:25:34.205Z,96460.00
2019-05-20T21:28:03.685Z,96452.21
2019-05-20T21:30:33.080Z,96450.78
2019-05-20T21:33:09.338Z,96455.87
2019-05-20T21:35:33.709Z,96456.97
2019-05-20T21:38:03.088Z,96459.67
2019-05-20T21:40:32.472Z,96466.13
2019-05-20T21:43:01.868Z,96470.79
2019-05-20T21:45:31.567Z,96465.50
2019-05-20T21:48:01.483Z,96473.45
2019-05-20T21:50:31.809Z,96478.94
2019-05-20T21:53:01.971Z,96475.44
2019-05-20T21:55:32.184Z,96483.77
2019-05-20T21:58:02.269Z,96479.54
2019-05-20T22:00:43.323Z,96488.28
2019-05-20T22:03:24.114Z,96492.67
2019-05-20T22:05:44.121Z,96485.64
2019-05-20T22:08:13.599Z,96483.92
2019-05-20T22:10:42.987Z,96481.23
2019-05-20T22:13:12.454Z,96479.84
2019-05-20T22:15:41.920Z,96481.98
2019-05-20T22:18:11.307Z,96476.12
2019-05-20T22:20:40.699Z,96479.50
2019-05-20T22:23:27.434Z,96485.15
2019-05-20T22:25:56.835Z,96489.53
2019-05-20T22:28:26.228Z,96483.02
2019-05-20T22:30:55.656Z,96489.27
2019-05-20T22:33:40.382Z,96484.11
2019-05-20T22:35:57.131Z,96484.16
2019-05-20T22:38:26.762Z,96489.80
2019-05-20T22:40:56.168Z,96482.00
2019-05-20T22:43:25.545Z,96481.16
2019-05-20T22:45:54.942Z,96475.36
2019-05-20T22:48:24.340Z,96475.09
2019-05-20T22:50:53.720Z,96467.30
2019-05-20T22:53:24.078Z,96466.53
2019-05-20T22:55:53.480Z,96463.28
2019-05-20T22:58:22.931Z,96460.88
2019-05-20T23:00:52.327Z,96458.17
2019-05-20T23:03:21.710Z,96455.23
2019-05-20T23:05:51.120Z,96447.56
2019-05-20T23:08:20.496Z,96439.83
2019-05-20T23:10:49.927Z,96440.48
2019-05-20T23:13:19.923Z,96443.08
2019-05-20T23:15:49.905Z,96447.30
2019-05-20T23:18:20.017Z,96446.64
2019-05-20T23:20:49.940Z,96436.95
2019-05-20T23:23:19.951Z,96431.25
2019-05-20T23:25:52.801Z,96426.22
2019-05-20T23:28:21.148Z,96423.72
2019-05-20T23:30:50.537Z,96418.73
2019-05-20T23:33:20.015Z,96426.47
2019-05-20T23:35:50.136Z,96429.08
2019-05-20T23:38:20.059Z,96426.89
2019-05-20T23:40:50.127Z,96421.75
2019-05-20T23:43:20.072Z,96417.63
2019-05-20T23:45:50.116Z,96420.77
2019-05-20T23:48:20.162Z,96415.19
2019-05-20T23:50:50.111Z,96412.52
2019-05-20T23:53:20.135Z,96420.14
2019-05-20T23:55:50.248Z,96420.93
2019-05-20T23:58:20.270Z,96415.50
